sensor_id;sensor_type;location;lat;lon;timestamp;P1;durP1;ratioP1;P2;durP2;ratioP2
44722;SDS011;30451;48.638;10.624;2024-03-22T00:01:13;9.07;;;5.38;;
44722;SDS011;30451;48.638;10.624;2024-03-22T00:03:39;7.72;;;5.32;;
44722;SDS011;30451;48.638;10.624;2024-03-22T00:06:05;7.65;;;5.18;;
44722;SDS011;30451;48.638;10.624;2024-03-22T00:08:30;6.82;;;4.90;;
44722;SDS011;30451;48.638;10.624;2024-03-22T00:10:56;6.70;;;4.80;;
44722;SDS011;30451;48.638;10.624;2024-03-22T00:13:21;6.53;;;4.88;;
44722;SDS011;30451;48.638;10.624;2024-03-22T00:15:47;7.80;;;5.13;;
44722;SDS011;30451;48.638;10.624;2024-03-22T00:18:12;7.07;;;5.25;;
44722;SDS011;30451;48.638;10.624;2024-03-22T00:20:38;7.60;;;5.15;;
44722;SDS011;30451;48.638;10.624;2024-03-22T00:23:04;6.95;;;5.10;;
44722;SDS011;30451;48.638;10.624;2024-03-22T00:25:29;7.18;;;5.07;;
44722;SDS011;30451;48.638;10.624;2024-03-22T00:27:55;6.55;;;5.00;;
44722;SDS011;30451;48.638;10.624;2024-03-22T00:30:21;9.48;;;5.20;;
44722;SDS011;30451;48.638;10.624;2024-03-22T00:32:47;6.90;;;4.78;;
44722;SDS011;30451;48.638;10.624;2024-03-22T00:35:12;6.10;;;4.78;;
44722;SDS011;30451;48.638;10.624;2024-03-22T00:37:38;7.53;;;5.05;;
44722;SDS011;30451;48.638;10.624;2024-03-22T00:40:04;6.43;;;4.88;;
44722;SDS011;30451;48.638;10.624;2024-03-22T00:42:30;6.50;;;4.85;;
44722;SDS011;30451;48.638;10.624;2024-03-22T00:44:56;7.05;;;4.57;;
44722;SDS011;30451;48.638;10.624;2024-03-22T00:47:22;6.47;;;4.75;;
44722;SDS011;30451;48.638;10.624;2024-03-22T00:49:48;6.15;;;4.40;;
44722;SDS011;30451;48.638;10.624;2024-03-22T00:52:14;6.93;;;4.95;;
44722;SDS011;30451;48.638;10.624;2024-03-22T00:54:39;6.82;;;4.65;;
44722;SDS011;30451;48.638;10.624;2024-03-22T00:57:05;7.05;;;4.70;;
44722;SDS011;30451;48.638;10.624;2024-03-22T00:59:31;6.70;;;4.68;;
44722;SDS011;30451;48.638;10.624;2024-03-22T01:01:57;6.25;;;4.32;;
44722;SDS011;30451;48.638;10.624;2024-03-22T01:04:23;5.93;;;4.38;;
44722;SDS011;30451;48.638;10.624;2024-03-22T01:06:49;6.93;;;4.75;;
44722;SDS011;30451;48.638;10.624;2024-03-22T01:09:14;5.50;;;4.40;;
44722;SDS011;30451;48.638;10.624;2024-03-22T01:11:40;6.03;;;4.28;;
44722;SDS011;30451;48.638;10.624;2024-03-22T01:14:06;5.55;;;4.00;;
44722;SDS011;30451;48.638;10.624;2024-03-22T01:16:31;6.40;;;4.30;;
44722;SDS011;30451;48.638;10.624;2024-03-22T01:18:57;6.22;;;4.20;;
44722;SDS011;30451;48.638;10.624;2024-03-22T01:21:23;5.80;;;4.15;;
44722;SDS011;30451;48.638;10.624;2024-03-22T01:23:51;6.15;;;4.38;;
44722;SDS011;30451;48.638;10.624;2024-03-22T01:26:19;5.90;;;4.35;;
44722;SDS011;30451;48.638;10.624;2024-03-22T01:28:46;5.50;;;4.25;;
44722;SDS011;30451;48.638;10.624;2024-03-22T01:31:11;4.80;;;3.83;;
44722;SDS011;30451;48.638;10.624;2024-03-22T01:33:37;5.60;;;3.92;;
44722;SDS011;30451;48.638;10.624;2024-03-22T01:36:03;5.80;;;4.15;;
44722;SDS011;30451;48.638;10.624;2024-03-22T01:38:30;6.43;;;3.97;;
44722;SDS011;30451;48.638;10.624;2024-03-22T01:40:56;6.70;;;4.35;;
44722;SDS011;30451;48.638;10.624;2024-03-22T01:43:22;5.47;;;3.92;;
44722;SDS011;30451;48.638;10.624;2024-03-22T01:45:47;5.13;;;3.85;;
44722;SDS011;30451;48.638;10.624;2024-03-22T01:48:13;5.30;;;3.70;;
44722;SDS011;30451;48.638;10.624;2024-03-22T01:50:39;5.93;;;3.90;;
44722;SDS011;30451;48.638;10.624;2024-03-22T01:53:05;5.45;;;3.67;;
44722;SDS011;30451;48.638;10.624;2024-03-22T01:55:31;5.55;;;3.83;;
44722;SDS011;30451;48.638;10.624;2024-03-22T01:57:57;6.13;;;3.78;;
44722;SDS011;30451;48.638;10.624;2024-03-22T02:00:23;5.25;;;3.97;;
44722;SDS011;30451;48.638;10.624;2024-03-22T02:02:49;5.40;;;3.80;;
44722;SDS011;30451;48.638;10.624;2024-03-22T02:05:14;4.93;;;3.75;;
44722;SDS011;30451;48.638;10.624;2024-03-22T02:07:41;4.45;;;3.10;;
44722;SDS011;30451;48.638;10.624;2024-03-22T02:10:07;4.90;;;3.50;;
44722;SDS011;30451;48.638;10.624;2024-03-22T02:12:36;5.25;;;3.83;;
44722;SDS011;30451;48.638;10.624;2024-03-22T02:15:02;4.60;;;3.60;;
44722;SDS011;30451;48.638;10.624;2024-03-22T02:17:28;4.53;;;3.58;;
44722;SDS011;30451;48.638;10.624;2024-03-22T02:19:53;4.68;;;3.47;;
44722;SDS011;30451;48.638;10.624;2024-03-22T02:22:19;4.78;;;3.53;;
44722;SDS011;30451;48.638;10.624;2024-03-22T02:24:45;5.03;;;3.85;;
44722;SDS011;30451;48.638;10.624;2024-03-22T02:27:10;5.50;;;3.88;;
44722;SDS011;30451;48.638;10.624;2024-03-22T02:29:36;4.47;;;3.63;;
44722;SDS011;30451;48.638;10.624;2024-03-22T02:32:01;5.00;;;3.60;;
44722;SDS011;30451;48.638;10.624;2024-03-22T02:34:28;4.22;;;3.30;;
44722;SDS011;30451;48.638;10.624;2024-03-22T02:36:54;4.50;;;3.42;;
44722;SDS011;30451;48.638;10.624;2024-03-22T02:39:19;5.40;;;3.92;;
44722;SDS011;30451;48.638;10.624;2024-03-22T02:41:45;4.57;;;3.50;;
44722;SDS011;30451;48.638;10.624;2024-03-22T02:44:11;4.35;;;3.20;;
44722;SDS011;30451;48.638;10.624;2024-03-22T02:46:36;5.28;;;3.60;;
44722;SDS011;30451;48.638;10.624;2024-03-22T02:49:02;4.68;;;3.50;;
44722;SDS011;30451;48.638;10.624;2024-03-22T02:51:27;4.40;;;3.30;;
44722;SDS011;30451;48.638;10.624;2024-03-22T02:53:53;4.70;;;3.50;;
44722;SDS011;30451;48.638;10.624;2024-03-22T02:56:18;4.82;;;3.58;;
44722;SDS011;30451;48.638;10.624;2024-03-22T02:58:44;4.90;;;3.45;;
44722;SDS011;30451;48.638;10.624;2024-03-22T03:01:10;4.25;;;3.22;;
44722;SDS011;30451;48.638;10.624;2024-03-22T03:03:35;6.88;;;3.53;;
44722;SDS011;30451;48.638;10.624;2024-03-22T03:06:01;4.47;;;3.30;;
44722;SDS011;30451;48.638;10.624;2024-03-22T03:08:26;4.53;;;3.33;;
44722;SDS011;30451;48.638;10.624;2024-03-22T03:10:52;5.13;;;3.55;;
44722;SDS011;30451;48.638;10.624;2024-03-22T03:13:18;5.30;;;3.47;;
44722;SDS011;30451;48.638;10.624;2024-03-22T03:15:43;3.95;;;3.10;;
44722;SDS011;30451;48.638;10.624;2024-03-22T03:18:09;4.70;;;3.13;;
44722;SDS011;30451;48.638;10.624;2024-03-22T03:20:34;4.97;;;3.22;;
44722;SDS011;30451;48.638;10.624;2024-03-22T03:23:00;4.70;;;3.35;;
44722;SDS011;30451;48.638;10.624;2024-03-22T03:25:26;4.53;;;3.40;;
44722;SDS011;30451;48.638;10.624;2024-03-22T03:27:52;4.40;;;2.90;;
44722;SDS011;30451;48.638;10.624;2024-03-22T03:30:18;3.72;;;2.85;;
44722;SDS011;30451;48.638;10.624;2024-03-22T03:32:43;3.75;;;2.92;;
44722;SDS011;30451;48.638;10.624;2024-03-22T03:35:09;4.28;;;3.08;;
44722;SDS011;30451;48.638;10.624;2024-03-22T03:37:34;4.03;;;3.20;;
44722;SDS011;30451;48.638;10.624;2024-03-22T03:40:00;4.03;;;3.10;;
44722;SDS011;30451;48.638;10.624;2024-03-22T03:42:26;4.47;;;2.92;;
44722;SDS011;30451;48.638;10.624;2024-03-22T03:44:51;3.83;;;3.15;;
44722;SDS011;30451;48.638;10.624;2024-03-22T03:47:17;3.78;;;2.72;;
44722;SDS011;30451;48.638;10.624;2024-03-22T03:49:44;4.35;;;3.10;;
44722;SDS011;30451;48.638;10.624;2024-03-22T03:52:10;3.90;;;2.90;;
44722;SDS011;30451;48.638;10.624;2024-03-22T03:54:36;3.85;;;2.95;;
44722;SDS011;30451;48.638;10.624;2024-03-22T03:57:02;3.70;;;2.78;;
44722;SDS011;30451;48.638;10.624;2024-03-22T03:59:28;3.67;;;2.80;;
44722;SDS011;30451;48.638;10.624;2024-03-22T04:01:54;3.78;;;2.97;;
44722;SDS011;30451;48.638;10.624;2024-03-22T04:04:20;4.38;;;3.08;;
44722;SDS011;30451;48.638;10.624;2024-03-22T04:06:45;4.50;;;3.25;;
44722;SDS011;30451;48.638;10.624;2024-03-22T04:09:11;4.07;;;2.85;;
44722;SDS011;30451;48.638;10.624;2024-03-22T04:11:37;3.95;;;2.95;;
44722;SDS011;30451;48.638;10.624;2024-03-22T04:14:03;4.03;;;2.95;;
44722;SDS011;30451;48.638;10.624;2024-03-22T04:16:30;3.72;;;2.70;;
44722;SDS011;30451;48.638;10.624;2024-03-22T04:18:56;4.18;;;2.97;;
44722;SDS011;30451;48.638;10.624;2024-03-22T04:21:21;4.18;;;2.85;;
44722;SDS011;30451;48.638;10.624;2024-03-22T04:23:47;3.83;;;2.70;;
44722;SDS011;30451;48.638;10.624;2024-03-22T04:26:13;4.53;;;2.65;;
44722;SDS011;30451;48.638;10.624;2024-03-22T04:28:39;4.15;;;2.65;;
44722;SDS011;30451;48.638;10.624;2024-03-22T04:31:08;4.07;;;2.88;;
44722;SDS011;30451;48.638;10.624;2024-03-22T04:33:35;4.00;;;2.78;;
44722;SDS011;30451;48.638;10.624;2024-03-22T04:36:02;4.07;;;3.10;;
44722;SDS011;30451;48.638;10.624;2024-03-22T04:38:28;4.03;;;3.03;;
44722;SDS011;30451;48.638;10.624;2024-03-22T04:40:54;3.80;;;2.60;;
44722;SDS011;30451;48.638;10.624;2024-03-22T04:43:21;3.83;;;2.80;;
44722;SDS011;30451;48.638;10.624;2024-03-22T04:45:48;3.80;;;2.80;;
44722;SDS011;30451;48.638;10.624;2024-03-22T04:48:19;4.43;;;2.80;;
44722;SDS011;30451;48.638;10.624;2024-03-22T04:50:46;3.63;;;2.50;;
44722;SDS011;30451;48.638;10.624;2024-03-22T04:53:15;4.43;;;2.90;;
44722;SDS011;30451;48.638;10.624;2024-03-22T04:55:46;3.47;;;2.70;;
44722;SDS011;30451;48.638;10.624;2024-03-22T04:58:15;3.47;;;2.67;;
44722;SDS011;30451;48.638;10.624;2024-03-22T05:00:42;3.72;;;2.78;;
44722;SDS011;30451;48.638;10.624;2024-03-22T05:03:08;4.03;;;2.78;;
44722;SDS011;30451;48.638;10.624;2024-03-22T05:05:34;3.65;;;2.60;;
44722;SDS011;30451;48.638;10.624;2024-03-22T05:08:01;3.75;;;2.70;;
44722;SDS011;30451;48.638;10.624;2024-03-22T05:10:27;3.40;;;2.47;;
44722;SDS011;30451;48.638;10.624;2024-03-22T05:12:54;3.67;;;2.55;;
44722;SDS011;30451;48.638;10.624;2024-03-22T05:15:22;3.53;;;2.40;;
44722;SDS011;30451;48.638;10.624;2024-03-22T05:17:50;4.32;;;3.00;;
44722;SDS011;30451;48.638;10.624;2024-03-22T05:20:16;3.67;;;2.65;;
44722;SDS011;30451;48.638;10.624;2024-03-22T05:22:42;4.50;;;2.60;;
44722;SDS011;30451;48.638;10.624;2024-03-22T05:25:08;3.47;;;2.50;;
44722;SDS011;30451;48.638;10.624;2024-03-22T05:27:34;4.07;;;2.45;;
44722;SDS011;30451;48.638;10.624;2024-03-22T05:30:00;3.63;;;2.42;;
44722;SDS011;30451;48.638;10.624;2024-03-22T05:32:26;3.78;;;2.65;;
44722;SDS011;30451;48.638;10.624;2024-03-22T05:34:52;5.18;;;2.60;;
44722;SDS011;30451;48.638;10.624;2024-03-22T05:37:18;3.38;;;2.40;;
44722;SDS011;30451;48.638;10.624;2024-03-22T05:39:44;4.32;;;2.67;;
44722;SDS011;30451;48.638;10.624;2024-03-22T05:42:09;3.30;;;2.40;;
44722;SDS011;30451;48.638;10.624;2024-03-22T05:44:35;3.72;;;2.45;;
44722;SDS011;30451;48.638;10.624;2024-03-22T05:47:00;3.80;;;2.60;;
44722;SDS011;30451;48.638;10.624;2024-03-22T05:49:26;2.85;;;2.17;;
44722;SDS011;30451;48.638;10.624;2024-03-22T05:51:52;3.17;;;2.40;;
44722;SDS011;30451;48.638;10.624;2024-03-22T05:54:18;3.55;;;2.70;;
44722;SDS011;30451;48.638;10.624;2024-03-22T05:56:45;3.67;;;2.40;;
44722;SDS011;30451;48.638;10.624;2024-03-22T05:59:11;3.60;;;2.60;;
44722;SDS011;30451;48.638;10.624;2024-03-22T06:01:36;3.70;;;2.50;;
44722;SDS011;30451;48.638;10.624;2024-03-22T06:04:03;3.65;;;2.45;;
44722;SDS011;30451;48.638;10.624;2024-03-22T06:06:29;3.80;;;2.50;;
44722;SDS011;30451;48.638;10.624;2024-03-22T06:08:55;3.35;;;2.20;;
44722;SDS011;30451;48.638;10.624;2024-03-22T06:11:22;4.63;;;2.60;;
44722;SDS011;30451;48.638;10.624;2024-03-22T06:13:48;3.25;;;2.42;;
44722;SDS011;30451;48.638;10.624;2024-03-22T06:16:14;4.20;;;2.35;;
44722;SDS011;30451;48.638;10.624;2024-03-22T06:18:40;3.33;;;2.30;;
44722;SDS011;30451;48.638;10.624;2024-03-22T06:21:05;3.70;;;2.28;;
44722;SDS011;30451;48.638;10.624;2024-03-22T06:23:32;3.85;;;2.38;;
44722;SDS011;30451;48.638;10.624;2024-03-22T06:25:58;3.95;;;2.30;;
44722;SDS011;30451;48.638;10.624;2024-03-22T06:28:26;3.70;;;2.42;;
44722;SDS011;30451;48.638;10.624;2024-03-22T06:30:52;4.53;;;1.92;;
44722;SDS011;30451;48.638;10.624;2024-03-22T06:33:19;3.15;;;2.10;;
44722;SDS011;30451;48.638;10.624;2024-03-22T06:35:45;3.45;;;2.00;;
44722;SDS011;30451;48.638;10.624;2024-03-22T06:38:11;2.90;;;1.88;;
44722;SDS011;30451;48.638;10.624;2024-03-22T06:40:37;3.00;;;1.98;;
44722;SDS011;30451;48.638;10.624;2024-03-22T06:43:03;3.10;;;2.00;;
44722;SDS011;30451;48.638;10.624;2024-03-22T06:45:29;3.63;;;2.10;;
44722;SDS011;30451;48.638;10.624;2024-03-22T06:47:54;3.67;;;2.05;;
44722;SDS011;30451;48.638;10.624;2024-03-22T06:50:20;3.00;;;1.83;;
44722;SDS011;30451;48.638;10.624;2024-03-22T06:52:54;2.88;;;1.83;;
44722;SDS011;30451;48.638;10.624;2024-03-22T06:55:20;2.58;;;1.70;;
44722;SDS011;30451;48.638;10.624;2024-03-22T06:57:47;2.95;;;1.92;;
44722;SDS011;30451;48.638;10.624;2024-03-22T07:00:13;3.08;;;1.85;;
44722;SDS011;30451;48.638;10.624;2024-03-22T07:02:39;3.35;;;2.10;;
44722;SDS011;30451;48.638;10.624;2024-03-22T07:05:06;2.53;;;1.73;;
44722;SDS011;30451;48.638;10.624;2024-03-22T07:07:32;2.97;;;1.90;;
44722;SDS011;30451;48.638;10.624;2024-03-22T07:09:58;3.05;;;1.95;;
44722;SDS011;30451;48.638;10.624;2024-03-22T07:12:24;3.25;;;1.98;;
44722;SDS011;30451;48.638;10.624;2024-03-22T07:14:50;3.20;;;2.17;;
44722;SDS011;30451;48.638;10.624;2024-03-22T07:17:15;2.42;;;1.80;;
44722;SDS011;30451;48.638;10.624;2024-03-22T07:19:41;3.60;;;1.90;;
44722;SDS011;30451;48.638;10.624;2024-03-22T07:22:07;2.50;;;1.70;;
44722;SDS011;30451;48.638;10.624;2024-03-22T07:24:33;2.92;;;1.83;;
44722;SDS011;30451;48.638;10.624;2024-03-22T07:26:59;3.17;;;2.10;;
44722;SDS011;30451;48.638;10.624;2024-03-22T07:29:24;4.60;;;2.20;;
44722;SDS011;30451;48.638;10.624;2024-03-22T07:31:50;3.03;;;2.08;;
44722;SDS011;30451;48.638;10.624;2024-03-22T07:34:15;3.38;;;2.00;;
44722;SDS011;30451;48.638;10.624;2024-03-22T07:36:41;3.75;;;2.33;;
44722;SDS011;30451;48.638;10.624;2024-03-22T07:39:07;3.30;;;1.90;;
44722;SDS011;30451;48.638;10.624;2024-03-22T07:41:33;3.25;;;2.08;;
44722;SDS011;30451;48.638;10.624;2024-03-22T07:43:59;3.75;;;2.00;;
44722;SDS011;30451;48.638;10.624;2024-03-22T07:46:25;4.28;;;2.40;;
44722;SDS011;30451;48.638;10.624;2024-03-22T07:48:51;3.70;;;2.15;;
44722;SDS011;30451;48.638;10.624;2024-03-22T07:51:18;4.03;;;2.40;;
44722;SDS011;30451;48.638;10.624;2024-03-22T07:53:44;4.00;;;2.25;;
44722;SDS011;30451;48.638;10.624;2024-03-22T07:56:09;3.40;;;2.13;;
44722;SDS011;30451;48.638;10.624;2024-03-22T07:58:36;3.40;;;2.08;;
44722;SDS011;30451;48.638;10.624;2024-03-22T08:01:01;3.45;;;2.00;;
44722;SDS011;30451;48.638;10.624;2024-03-22T08:03:27;3.20;;;1.98;;
44722;SDS011;30451;48.638;10.624;2024-03-22T08:05:53;3.28;;;2.05;;
44722;SDS011;30451;48.638;10.624;2024-03-22T08:08:18;3.72;;;2.28;;
44722;SDS011;30451;48.638;10.624;2024-03-22T08:10:44;2.75;;;2.05;;
44722;SDS011;30451;48.638;10.624;2024-03-22T08:13:09;3.33;;;2.00;;
44722;SDS011;30451;48.638;10.624;2024-03-22T08:15:36;4.00;;;2.22;;
44722;SDS011;30451;48.638;10.624;2024-03-22T08:18:01;2.95;;;2.10;;
44722;SDS011;30451;48.638;10.624;2024-03-22T08:20:27;3.10;;;2.13;;
44722;SDS011;30451;48.638;10.624;2024-03-22T08:22:53;3.55;;;1.98;;
44722;SDS011;30451;48.638;10.624;2024-03-22T08:25:19;3.10;;;2.20;;
44722;SDS011;30451;48.638;10.624;2024-03-22T08:27:45;3.55;;;2.10;;
44722;SDS011;30451;48.638;10.624;2024-03-22T08:30:12;2.95;;;1.77;;
44722;SDS011;30451;48.638;10.624;2024-03-22T08:32:38;3.28;;;1.88;;
44722;SDS011;30451;48.638;10.624;2024-03-22T08:35:04;3.50;;;1.77;;
44722;SDS011;30451;48.638;10.624;2024-03-22T08:37:30;3.38;;;2.03;;
44722;SDS011;30451;48.638;10.624;2024-03-22T08:39:56;3.40;;;2.28;;
44722;SDS011;30451;48.638;10.624;2024-03-22T08:42:22;3.55;;;2.00;;
44722;SDS011;30451;48.638;10.624;2024-03-22T08:44:47;3.28;;;1.95;;
44722;SDS011;30451;48.638;10.624;2024-03-22T08:47:13;4.20;;;2.00;;
44722;SDS011;30451;48.638;10.624;2024-03-22T08:49:39;3.53;;;2.15;;
44722;SDS011;30451;48.638;10.624;2024-03-22T08:52:06;2.83;;;1.92;;
44722;SDS011;30451;48.638;10.624;2024-03-22T08:54:32;3.33;;;1.83;;
44722;SDS011;30451;48.638;10.624;2024-03-22T08:56:59;4.35;;;2.13;;
44722;SDS011;30451;48.638;10.624;2024-03-22T08:59:24;3.00;;;1.90;;
44722;SDS011;30451;48.638;10.624;2024-03-22T09:01:51;3.75;;;2.03;;
44722;SDS011;30451;48.638;10.624;2024-03-22T09:04:17;3.42;;;1.90;;
44722;SDS011;30451;48.638;10.624;2024-03-22T09:06:42;2.88;;;1.83;;
44722;SDS011;30451;48.638;10.624;2024-03-22T09:09:08;2.90;;;1.75;;
44722;SDS011;30451;48.638;10.624;2024-03-22T09:11:34;2.60;;;1.83;;
44722;SDS011;30451;48.638;10.624;2024-03-22T09:13:59;3.30;;;2.20;;
44722;SDS011;30451;48.638;10.624;2024-03-22T09:16:25;2.85;;;1.90;;
44722;SDS011;30451;48.638;10.624;2024-03-22T09:18:50;3.20;;;2.05;;
44722;SDS011;30451;48.638;10.624;2024-03-22T09:21:16;3.28;;;1.80;;
44722;SDS011;30451;48.638;10.624;2024-03-22T09:23:42;2.53;;;1.73;;
44722;SDS011;30451;48.638;10.624;2024-03-22T09:26:07;2.97;;;1.90;;
44722;SDS011;30451;48.638;10.624;2024-03-22T09:28:33;3.17;;;1.80;;
44722;SDS011;30451;48.638;10.624;2024-03-22T09:31:03;3.03;;;1.80;;
44722;SDS011;30451;48.638;10.624;2024-03-22T09:33:30;2.80;;;1.80;;
44722;SDS011;30451;48.638;10.624;2024-03-22T09:35:57;3.00;;;1.90;;
44722;SDS011;30451;48.638;10.624;2024-03-22T09:38:23;2.63;;;1.92;;
44722;SDS011;30451;48.638;10.624;2024-03-22T09:40:48;3.50;;;1.77;;
44722;SDS011;30451;48.638;10.624;2024-03-22T09:43:19;3.83;;;2.22;;
44722;SDS011;30451;48.638;10.624;2024-03-22T09:45:45;2.58;;;1.70;;
44722;SDS011;30451;48.638;10.624;2024-03-22T09:48:13;2.55;;;1.80;;
44722;SDS011;30451;48.638;10.624;2024-03-22T09:50:39;2.78;;;1.80;;
44722;SDS011;30451;48.638;10.624;2024-03-22T09:53:06;2.80;;;1.90;;
44722;SDS011;30451;48.638;10.624;2024-03-22T09:55:32;3.20;;;1.95;;
44722;SDS011;30451;48.638;10.624;2024-03-22T09:58:01;2.65;;;1.88;;
44722;SDS011;30451;48.638;10.624;2024-03-22T10:00:27;2.67;;;1.55;;
44722;SDS011;30451;48.638;10.624;2024-03-22T10:02:53;2.80;;;1.80;;
44722;SDS011;30451;48.638;10.624;2024-03-22T10:05:19;3.47;;;2.20;;
44722;SDS011;30451;48.638;10.624;2024-03-22T10:07:45;3.15;;;1.95;;
44722;SDS011;30451;48.638;10.624;2024-03-22T10:10:11;3.10;;;1.88;;
44722;SDS011;30451;48.638;10.624;2024-03-22T10:12:37;2.45;;;1.65;;
44722;SDS011;30451;48.638;10.624;2024-03-22T10:15:04;2.88;;;1.95;;
44722;SDS011;30451;48.638;10.624;2024-03-22T10:17:33;3.83;;;1.90;;
44722;SDS011;30451;48.638;10.624;2024-03-22T10:20:00;4.63;;;1.70;;
44722;SDS011;30451;48.638;10.624;2024-03-22T10:22:25;2.58;;;1.73;;
44722;SDS011;30451;48.638;10.624;2024-03-22T10:24:51;2.53;;;1.70;;
44722;SDS011;30451;48.638;10.624;2024-03-22T10:27:18;2.70;;;1.80;;
44722;SDS011;30451;48.638;10.624;2024-03-22T10:29:44;2.95;;;1.83;;
44722;SDS011;30451;48.638;10.624;2024-03-22T10:32:12;2.55;;;1.73;;
44722;SDS011;30451;48.638;10.624;2024-03-22T10:34:37;2.30;;;1.70;;
44722;SDS011;30451;48.638;10.624;2024-03-22T10:37:07;3.10;;;1.80;;
44722;SDS011;30451;48.638;10.624;2024-03-22T10:39:35;2.90;;;1.92;;
44722;SDS011;30451;48.638;10.624;2024-03-22T10:42:02;3.03;;;1.95;;
44722;SDS011;30451;48.638;10.624;2024-03-22T10:44:28;2.75;;;1.70;;
44722;SDS011;30451;48.638;10.624;2024-03-22T10:46:53;2.85;;;1.60;;
44722;SDS011;30451;48.638;10.624;2024-03-22T10:49:24;2.85;;;1.60;;
44722;SDS011;30451;48.638;10.624;2024-03-22T10:51:56;2.33;;;1.55;;
44722;SDS011;30451;48.638;10.624;2024-03-22T10:54:27;2.83;;;1.80;;
44722;SDS011;30451;48.638;10.624;2024-03-22T10:56:57;3.03;;;1.70;;
44722;SDS011;30451;48.638;10.624;2024-03-22T10:59:23;2.80;;;1.80;;
44722;SDS011;30451;48.638;10.624;2024-03-22T11:01:49;3.00;;;1.75;;
44722;SDS011;30451;48.638;10.624;2024-03-22T11:04:16;2.90;;;1.80;;
44722;SDS011;30451;48.638;10.624;2024-03-22T11:06:49;2.63;;;1.55;;
44722;SDS011;30451;48.638;10.624;2024-03-22T11:09:22;2.35;;;1.60;;
44722;SDS011;30451;48.638;10.624;2024-03-22T11:11:48;2.35;;;1.60;;
44722;SDS011;30451;48.638;10.624;2024-03-22T11:14:17;2.40;;;1.60;;
44722;SDS011;30451;48.638;10.624;2024-03-22T11:16:45;2.60;;;1.65;;
44722;SDS011;30451;48.638;10.624;2024-03-22T11:19:11;2.40;;;1.58;;
44722;SDS011;30451;48.638;10.624;2024-03-22T11:21:37;2.65;;;1.73;;
44722;SDS011;30451;48.638;10.624;2024-03-22T11:24:04;3.22;;;1.90;;
44722;SDS011;30451;48.638;10.624;2024-03-22T11:26:30;3.00;;;1.75;;
44722;SDS011;30451;48.638;10.624;2024-03-22T11:28:57;2.88;;;1.75;;
44722;SDS011;30451;48.638;10.624;2024-03-22T11:31:23;2.78;;;1.60;;
44722;SDS011;30451;48.638;10.624;2024-03-22T11:33:52;3.00;;;1.80;;
44722;SDS011;30451;48.638;10.624;2024-03-22T11:36:18;2.67;;;1.85;;
44722;SDS011;30451;48.638;10.624;2024-03-22T11:38:44;2.47;;;1.60;;
44722;SDS011;30451;48.638;10.624;2024-03-22T11:41:10;3.03;;;1.60;;
44722;SDS011;30451;48.638;10.624;2024-03-22T11:43:36;3.47;;;1.80;;
44722;SDS011;30451;48.638;10.624;2024-03-22T11:46:03;2.40;;;1.65;;
44722;SDS011;30451;48.638;10.624;2024-03-22T11:48:29;2.47;;;1.70;;
44722;SDS011;30451;48.638;10.624;2024-03-22T11:50:54;2.65;;;1.70;;
44722;SDS011;30451;48.638;10.624;2024-03-22T11:53:21;4.20;;;1.80;;
44722;SDS011;30451;48.638;10.624;2024-03-22T11:55:48;2.28;;;1.52;;
44722;SDS011;30451;48.638;10.624;2024-03-22T11:58:14;2.35;;;1.65;;
44722;SDS011;30451;48.638;10.624;2024-03-22T12:00:43;2.72;;;1.75;;
44722;SDS011;30451;48.638;10.624;2024-03-22T12:03:09;2.90;;;1.70;;
44722;SDS011;30451;48.638;10.624;2024-03-22T12:05:35;2.97;;;1.77;;
44722;SDS011;30451;48.638;10.624;2024-03-22T12:08:00;2.53;;;1.67;;
44722;SDS011;30451;48.638;10.624;2024-03-22T12:10:27;2.55;;;1.60;;
44722;SDS011;30451;48.638;10.624;2024-03-22T12:12:52;2.60;;;1.63;;
44722;SDS011;30451;48.638;10.624;2024-03-22T12:15:19;3.08;;;1.63;;
44722;SDS011;30451;48.638;10.624;2024-03-22T12:17:45;3.92;;;1.75;;
44722;SDS011;30451;48.638;10.624;2024-03-22T12:20:10;2.42;;;1.70;;
44722;SDS011;30451;48.638;10.624;2024-03-22T12:22:36;2.00;;;1.60;;
44722;SDS011;30451;48.638;10.624;2024-03-22T12:25:01;2.30;;;1.75;;
44722;SDS011;30451;48.638;10.624;2024-03-22T12:27:29;2.70;;;1.60;;
44722;SDS011;30451;48.638;10.624;2024-03-22T12:29:55;2.42;;;1.58;;
44722;SDS011;30451;48.638;10.624;2024-03-22T12:32:20;2.40;;;1.60;;
44722;SDS011;30451;48.638;10.624;2024-03-22T12:34:46;2.45;;;1.60;;
44722;SDS011;30451;48.638;10.624;2024-03-22T12:37:11;2.33;;;1.58;;
44722;SDS011;30451;48.638;10.624;2024-03-22T12:39:38;2.63;;;1.63;;
44722;SDS011;30451;48.638;10.624;2024-03-22T12:42:04;2.05;;;1.50;;
44722;SDS011;30451;48.638;10.624;2024-03-22T12:44:31;2.50;;;1.60;;
44722;SDS011;30451;48.638;10.624;2024-03-22T12:46:56;2.70;;;1.33;;
44722;SDS011;30451;48.638;10.624;2024-03-22T12:49:22;2.60;;;1.52;;
44722;SDS011;30451;48.638;10.624;2024-03-22T12:51:47;2.42;;;1.50;;
44722;SDS011;30451;48.638;10.624;2024-03-22T12:54:13;2.00;;;1.42;;
44722;SDS011;30451;48.638;10.624;2024-03-22T12:56:40;2.50;;;1.60;;
44722;SDS011;30451;48.638;10.624;2024-03-22T12:59:05;2.88;;;1.58;;
44722;SDS011;30451;48.638;10.624;2024-03-22T13:01:32;2.65;;;1.50;;
44722;SDS011;30451;48.638;10.624;2024-03-22T13:03:58;2.33;;;1.52;;
44722;SDS011;30451;48.638;10.624;2024-03-22T13:06:23;2.08;;;1.45;;
44722;SDS011;30451;48.638;10.624;2024-03-22T13:08:49;2.55;;;1.45;;
44722;SDS011;30451;48.638;10.624;2024-03-22T13:11:15;1.98;;;1.40;;
44722;SDS011;30451;48.638;10.624;2024-03-22T13:13:42;2.13;;;1.48;;
44722;SDS011;30451;48.638;10.624;2024-03-22T13:16:08;2.47;;;1.50;;
44722;SDS011;30451;48.638;10.624;2024-03-22T13:18:36;2.55;;;1.60;;
44722;SDS011;30451;48.638;10.624;2024-03-22T13:21:02;2.80;;;1.50;;
44722;SDS011;30451;48.638;10.624;2024-03-22T13:23:30;2.45;;;1.52;;
44722;SDS011;30451;48.638;10.624;2024-03-22T13:25:55;2.08;;;1.40;;
44722;SDS011;30451;48.638;10.624;2024-03-22T13:28:23;2.47;;;1.40;;
44722;SDS011;30451;48.638;10.624;2024-03-22T13:30:49;1.83;;;1.30;;
44722;SDS011;30451;48.638;10.624;2024-03-22T13:33:33;2.25;;;1.50;;
44722;SDS011;30451;48.638;10.624;2024-03-22T13:35:59;1.80;;;1.38;;
44722;SDS011;30451;48.638;10.624;2024-03-22T13:38:26;2.20;;;1.60;;
44722;SDS011;30451;48.638;10.624;2024-03-22T13:40:55;2.00;;;1.33;;
44722;SDS011;30451;48.638;10.624;2024-03-22T13:43:21;2.25;;;1.60;;
44722;SDS011;30451;48.638;10.624;2024-03-22T13:45:49;2.10;;;1.20;;
44722;SDS011;30451;48.638;10.624;2024-03-22T13:48:19;1.90;;;1.40;;
44722;SDS011;30451;48.638;10.624;2024-03-22T13:50:48;2.85;;;1.25;;
44722;SDS011;30451;48.638;10.624;2024-03-22T13:53:14;2.78;;;1.50;;
44722;SDS011;30451;48.638;10.624;2024-03-22T13:55:42;2.40;;;1.48;;
44722;SDS011;30451;48.638;10.624;2024-03-22T13:58:07;2.45;;;1.40;;
44722;SDS011;30451;48.638;10.624;2024-03-22T14:00:33;1.98;;;1.30;;
44722;SDS011;30451;48.638;10.624;2024-03-22T14:02:59;2.20;;;1.38;;
44722;SDS011;30451;48.638;10.624;2024-03-22T14:05:24;1.40;;;1.10;;
44722;SDS011;30451;48.638;10.624;2024-03-22T14:07:51;1.98;;;1.20;;
44722;SDS011;30451;48.638;10.624;2024-03-22T14:10:17;2.33;;;1.40;;
44722;SDS011;30451;48.638;10.624;2024-03-22T14:12:43;1.50;;;1.08;;
44722;SDS011;30451;48.638;10.624;2024-03-22T14:15:10;3.25;;;1.50;;
44722;SDS011;30451;48.638;10.624;2024-03-22T14:17:36;1.70;;;1.20;;
44722;SDS011;30451;48.638;10.624;2024-03-22T14:20:01;1.83;;;1.30;;
44722;SDS011;30451;48.638;10.624;2024-03-22T14:22:33;2.03;;;1.23;;
44722;SDS011;30451;48.638;10.624;2024-03-22T14:25:00;1.98;;;1.38;;
44722;SDS011;30451;48.638;10.624;2024-03-22T14:27:27;2.17;;;1.40;;